Time;durP1;ratioP1;P1;durP2;ratioP2;P2;SDS_P1;SDS_P2;PMS_P1;PMS_P2;Temp;Humidity;BMP_temperature;BMP_pressure;BME280_temperature;BME280_humidity;BME280_pressure;Samples;Min_cycle;Max_cycle;Signal;HPM_P1;HPM_P2
2024/02/16 00:00:51;;;;;;;7.93;7.13;;;14.10;77.90;;;;;;5026452;28;20040;-68
2024/02/16 00:03:36;;;;;;;8.20;6.60;;;14.00;77.80;;;;;;5028096;28;20326;-67
2024/02/16 00:06:20;;;;;;;8.30;7.50;;;14.00;77.80;;;;;;5026864;28;20044;-68
2024/02/16 00:09:05;;;;;;;9.82;7.32;;;14.00;77.80;;;;;;5026011;28;20601;-69
2024/02/16 00:11:52;;;;;;;9.18;7.85;;;14.00;77.80;;;;;;5028903;28;20382;-69
2024/02/16 00:14:37;;;;;;;9.02;8.13;;;14.00;77.80;;;;;;5032721;28;20380;-70
2024/02/16 00:17:22;;;;;;;9.70;8.65;;;14.00;77.80;;;;;;5026096;28;20087;-67
2024/02/16 00:20:08;;;;;;;9.00;7.65;;;14.00;77.80;;;;;;5027433;28;20035;-67
2024/02/16 00:22:52;;;;;;;9.23;8.32;;;13.90;77.60;;;;;;5030529;28;20461;-68
2024/02/16 00:25:38;;;;;;;9.23;7.85;;;14.00;77.80;;;;;;5029270;28;20072;-68
2024/02/16 00:28:22;;;;;;;11.02;8.57;;;13.90;77.60;;;;;;5031374;28;20048;-69
2024/02/16 00:31:07;;;;;;;8.93;7.97;;;13.90;77.50;;;;;;5023902;28;20567;-69
2024/02/16 00:33:51;;;;;;;9.65;8.35;;;13.90;77.50;;;;;;5025608;28;20040;-68
2024/02/16 00:36:36;;;;;;;10.30;8.07;;;13.90;77.60;;;;;;5025964;28;20330;-68
2024/02/16 00:39:22;;;;;;;10.75;9.25;;;13.90;77.60;;;;;;5019630;28;20636;-68
2024/02/16 00:42:06;;;;;;;10.38;9.25;;;13.90;77.60;;;;;;5026463;28;20106;-70
2024/02/16 00:44:51;;;;;;;10.60;9.50;;;13.90;77.60;;;;;;5023056;28;20041;-68
2024/02/16 00:47:36;;;;;;;13.30;9.73;;;13.90;77.70;;;;;;5025046;28;20052;-70
2024/02/16 00:50:21;;;;;;;10.70;9.30;;;13.90;77.70;;;;;;5024501;28;20122;-70
2024/02/16 00:53:05;;;;;;;10.45;9.18;;;13.80;77.50;;;;;;5023903;28;20543;-69
2024/02/16 00:55:50;;;;;;;10.85;9.52;;;13.80;77.50;;;;;;5024169;28;20048;-70
2024/02/16 00:58:36;;;;;;;13.15;10.73;;;13.80;77.50;;;;;;5019274;28;20040;-69
2024/02/16 01:01:22;;;;;;;11.50;10.10;;;13.80;77.50;;;;;;5026166;28;20416;-70
2024/02/16 01:04:06;;;;;;;11.00;9.90;;;13.80;77.50;;;;;;5026773;28;20040;-67
2024/02/16 01:06:51;;;;;;;13.52;11.18;;;13.80;77.50;;;;;;5013358;28;20227;-68
2024/02/16 01:09:36;;;;;;;12.18;10.88;;;13.80;77.50;;;;;;4995615;28;20739;-69
2024/02/16 01:12:21;;;;;;;12.30;10.05;;;13.80;77.50;;;;;;5013707;28;20225;-70
2024/02/16 01:15:06;;;;;;;9.55;8.55;;;13.70;77.30;;;;;;5011777;28;20060;-70
2024/02/16 01:17:50;;;;;;;11.73;9.75;;;13.70;77.30;;;;;;5016814;28;20106;-70
2024/02/16 01:20:36;;;;;;;11.13;10.02;;;13.70;77.70;;;;;;5014320;28;20045;-71
2024/02/16 01:23:21;;;;;;;11.30;10.10;;;13.70;77.40;;;;;;5017011;28;20055;-72
2024/02/16 01:26:05;;;;;;;11.25;9.40;;;13.70;77.50;;;;;;5008460;28;20354;-70
2024/02/16 01:28:49;;;;;;;10.50;9.32;;;13.70;77.50;;;;;;5010649;28;20048;-69
2024/02/16 01:31:36;;;;;;;9.15;7.85;;;13.70;77.50;;;;;;5012900;28;20052;-70
2024/02/16 01:34:20;;;;;;;12.50;9.13;;;13.60;77.30;;;;;;5015383;28;20227;-70
2024/02/16 01:37:05;;;;;;;13.23;9.35;;;13.60;77.30;;;;;;5011674;28;20384;-69
2024/02/16 01:39:50;;;;;;;10.00;9.00;;;13.60;77.40;;;;;;5016670;28;20044;-70
2024/02/16 01:42:34;;;;;;;9.75;8.30;;;13.60;77.40;;;;;;5017685;28;20041;-70
2024/02/16 01:45:19;;;;;;;10.40;8.07;;;13.60;77.50;;;;;;5008096;28;20068;-70
2024/02/16 01:48:04;;;;;;;10.23;8.18;;;13.50;77.30;;;;;;5012148;28;20112;-68
2024/02/16 01:50:49;;;;;;;8.45;7.38;;;13.50;77.30;;;;;;5012714;28;20349;-70
2024/02/16 01:53:36;;;;;;;8.95;7.00;;;13.50;77.30;;;;;;5000603;28;20152;-69
2024/02/16 01:56:21;;;;;;;10.23;6.75;;;13.50;77.30;;;;;;5009616;28;20084;-70
2024/02/16 01:59:06;;;;;;;8.27;6.15;;;13.50;77.30;;;;;;5012512;28;20781;-69
2024/02/16 02:01:51;;;;;;;6.65;5.15;;;13.50;77.30;;;;;;5012258;28;20704;-69
2024/02/16 02:04:36;;;;;;;6.95;5.43;;;13.50;77.30;;;;;;5027191;28;20887;-69
2024/02/16 02:07:29;;;;;;;8.50;5.00;;;13.50;77.30;;;;;;5015311;28;20052;-69
2024/02/16 02:10:14;;;;;;;7.13;6.05;;;13.40;77.10;;;;;;5011977;28;20073;-69
2024/02/16 02:12:59;;;;;;;7.82;5.03;;;13.40;77.10;;;;;;5012593;28;20448;-68
2024/02/16 02:15:43;;;;;;;9.55;4.80;;;13.40;77.20;;;;;;5010098;28;20040;-68
2024/02/16 02:18:28;;;;;;;6.75;4.20;;;13.40;77.20;;;;;;5010720;28;20057;-67
2024/02/16 02:21:14;;;;;;;6.93;3.90;;;13.40;77.20;;;;;;5010846;28;20053;-67
2024/02/16 02:23:58;;;;;;;5.18;4.10;;;13.40;77.20;;;;;;5010278;28;20595;-68
2024/02/16 02:26:42;;;;;;;5.45;3.45;;;13.30;77.00;;;;;;5013597;28;20349;-67
2024/02/16 02:29:27;;;;;;;7.38;3.63;;;13.30;77.00;;;;;;5013445;28;20183;-68
2024/02/16 02:32:12;;;;;;;7.78;4.00;;;13.30;77.00;;;;;;5033869;22;20056;-79
2024/02/16 02:34:57;;;;;;;5.50;3.35;;;13.30;77.20;;;;;;5022011;28;20045;-77
2024/02/16 02:37:42;;;;;;;7.15;3.20;;;13.30;77.10;;;;;;5019543;28;20421;-77
2024/02/16 02:40:27;;;;;;;4.90;3.03;;;13.30;77.10;;;;;;5019230;28;20086;-77
2024/02/16 02:43:11;;;;;;;7.22;2.92;;;13.30;77.10;;;;;;5019341;28;20040;-80
2024/02/16 02:45:57;;;;;;;5.97;2.60;;;13.20;77.00;;;;;;5020100;28;20104;-80
2024/02/16 02:48:43;;;;;;;5.75;3.05;;;13.30;77.10;;;;;;5029266;28;20043;-81
2024/02/16 02:51:27;;;;;;;6.85;3.15;;;13.20;76.90;;;;;;5042414;28;20048;-79
2024/02/16 02:54:12;;;;;;;7.38;4.10;;;13.20;76.90;;;;;;5040935;28;20187;-78
2024/02/16 02:56:57;;;;;;;8.00;4.07;;;13.20;76.90;;;;;;5041196;28;20044;-80
2024/02/16 02:59:41;;;;;;;6.05;3.40;;;13.20;76.90;;;;;;5042579;28;20043;-80
2024/02/16 03:02:26;;;;;;;9.63;3.72;;;13.20;76.90;;;;;;5041721;28;20048;-80
2024/02/16 03:05:11;;;;;;;10.73;4.70;;;13.20;76.90;;;;;;5044176;28;20186;-80
2024/02/16 03:07:56;;;;;;;9.30;4.82;;;13.20;76.90;;;;;;5048461;28;20044;-80
2024/02/16 03:10:40;;;;;;;12.73;4.45;;;13.20;76.90;;;;;;5025106;28;20033;-80
2024/02/16 03:13:25;;;;;;;7.75;4.47;;;13.10;76.70;;;;;;5044465;28;20189;-80
2024/02/16 03:16:09;;;;;;;9.65;5.93;;;13.20;76.90;;;;;;5041012;28;20507;-80
2024/02/16 03:18:55;;;;;;;10.90;4.90;;;13.20;77.00;;;;;;5039457;28;20439;-80
2024/02/16 03:21:39;;;;;;;11.63;5.22;;;13.10;76.80;;;;;;5042551;28;20067;-80
2024/02/16 03:24:24;;;;;;;8.95;5.25;;;13.10;76.80;;;;;;5044521;28;20575;-79
2024/02/16 03:27:08;;;;;;;10.60;5.60;;;13.10;76.80;;;;;;5045380;28;20039;-79
2024/02/16 03:29:53;;;;;;;12.00;5.05;;;13.10;76.80;;;;;;5041039;28;20059;-78
2024/02/16 03:32:37;;;;;;;16.10;5.82;;;13.10;76.80;;;;;;5042971;28;20064;-80
2024/02/16 03:35:22;;;;;;;11.57;5.07;;;13.10;76.90;;;;;;5033943;28;20462;-80
2024/02/16 03:38:07;;;;;;;12.73;4.88;;;13.00;76.60;;;;;;5035194;28;20064;-79
2024/02/16 03:40:51;;;;;;;14.25;6.07;;;13.10;76.80;;;;;;5031934;28;20095;-79
2024/02/16 03:43:36;;;;;;;13.50;4.72;;;13.00;76.60;;;;;;5037588;28;20097;-81
2024/02/16 03:46:21;;;;;;;14.68;5.63;;;13.10;76.80;;;;;;5039850;28;20052;-80
2024/02/16 03:49:05;;;;;;;7.97;4.60;;;13.00;76.60;;;;;;5033506;28;20129;-81
2024/02/16 03:51:50;;;;;;;11.05;4.07;;;13.00;76.60;;;;;;5037062;28;20082;-81
2024/02/16 03:54:34;;;;;;;11.48;4.70;;;13.00;76.70;;;;;;5034340;28;20043;-81
2024/02/16 03:57:18;;;;;;;12.20;4.63;;;12.90;76.50;;;;;;5042889;28;20075;-80
2024/02/16 04:00:05;;;;;;;13.77;5.10;;;12.90;76.50;;;;;;5044621;28;20128;-80
2024/02/16 04:02:56;;;;;;;13.70;4.65;;;12.90;76.50;;;;;;5035812;28;20040;-80
2024/02/16 04:05:44;;;;;;;13.00;4.30;;;12.90;76.60;;;;;;5041992;28;20044;-80
2024/02/16 04:08:29;;;;;;;10.65;3.67;;;12.90;76.60;;;;;;5047487;28;20411;-80
2024/02/16 04:11:15;;;;;;;11.90;5.38;;;12.80;76.50;;;;;;5036673;28;20095;-80
2024/02/16 04:13:59;;;;;;;14.20;4.07;;;12.80;76.50;;;;;;5046629;28;20532;-80
2024/02/16 04:16:44;;;;;;;11.43;4.30;;;12.70;76.40;;;;;;5042581;28;20050;-80
2024/02/16 04:19:29;;;;;;;10.95;4.18;;;12.70;76.40;;;;;;5043363;28;20047;-80
2024/02/16 04:22:13;;;;;;;10.85;4.03;;;12.70;76.50;;;;;;5042080;28;20044;-79
2024/02/16 04:24:57;;;;;;;11.02;3.75;;;12.70;76.60;;;;;;5042994;28;20287;-79
2024/02/16 04:27:42;;;;;;;15.68;4.10;;;12.60;76.40;;;;;;5038754;28;20062;-79
2024/02/16 04:30:27;;;;;;;13.13;3.90;;;12.60;76.50;;;;;;5034536;28;20531;-79
2024/02/16 04:33:11;;;;;;;9.25;4.13;;;12.60;76.50;;;;;;5036873;28;20055;-79
2024/02/16 04:35:56;;;;;;;14.70;4.15;;;12.60;76.60;;;;;;5035991;28;20098;-80
2024/02/16 04:38:41;;;;;;;10.73;4.38;;;12.60;76.60;;;;;;5042305;28;20210;-79
2024/02/16 04:41:25;;;;;;;13.63;4.97;;;12.50;76.40;;;;;;5045633;28;20192;-78
2024/02/16 04:44:10;;;;;;;12.00;3.45;;;12.50;76.40;;;;;;5053696;28;20034;-79
2024/02/16 04:46:55;;;;;;;9.75;4.05;;;12.40;76.20;;;;;;5049593;28;20039;-79
2024/02/16 04:49:39;;;;;;;12.50;3.78;;;12.40;76.20;;;;;;5033065;28;20063;-79
2024/02/16 04:52:24;;;;;;;13.43;4.55;;;12.40;76.20;;;;;;5037565;28;20040;-79
2024/02/16 04:55:08;;;;;;;12.52;3.22;;;12.40;76.20;;;;;;5046441;28;20454;-79
2024/02/16 04:57:54;;;;;;;11.75;3.35;;;12.40;76.30;;;;;;5049462;28;20140;-79
2024/02/16 05:00:38;;;;;;;11.80;3.38;;;12.30;76.10;;;;;;5040075;28;20529;-78
2024/02/16 05:03:24;;;;;;;9.40;3.00;;;12.30;76.20;;;;;;5035524;28;20058;-80
2024/02/16 05:06:08;;;;;;;11.93;4.15;;;12.30;76.20;;;;;;5049192;28;20452;-80
2024/02/16 05:08:53;;;;;;;9.90;2.75;;;12.20;76.00;;;;;;5044581;28;20431;-80
2024/02/16 05:11:38;;;;;;;7.53;2.47;;;12.20;76.10;;;;;;5046520;28;20225;-80
2024/02/16 05:14:23;;;;;;;10.30;2.97;;;12.10;76.00;;;;;;5041896;28;20056;-80
2024/02/16 05:17:08;;;;;;;12.30;4.03;;;12.10;76.00;;;;;;5040557;28;20183;-81
2024/02/16 05:19:55;;;;;;;8.82;3.53;;;12.10;76.00;;;;;;5042755;28;20044;-80
2024/02/16 05:22:43;;;;;;;11.25;3.08;;;12.10;76.10;;;;;;5047136;28;20078;-80
2024/02/16 05:25:28;;;;;;;10.45;2.90;;;12.00;75.90;;;;;;5045491;28;20356;-80
2024/02/16 05:28:13;;;;;;;9.45;3.47;;;12.00;75.90;;;;;;5044899;28;20086;-80
2024/02/16 05:31:12;;;;;;;6.03;2.67;;;12.00;76.00;;;;;;5048300;28;20339;-81
2024/02/16 05:33:57;;;;;;;8.95;2.85;;;11.90;75.80;;;;;;5028962;28;20123;-80
2024/02/16 05:36:41;;;;;;;9.45;2.55;;;11.90;75.80;;;;;;5044223;28;20055;-79
2024/02/16 05:39:31;;;;;;;10.43;3.17;;;11.90;75.80;;;;;;5043545;28;20396;-79
2024/02/16 05:42:16;;;;;;;9.65;2.88;;;11.90;76.40;;;;;;5043575;28;20067;-79
2024/02/16 05:45:01;;;;;;;8.93;2.55;;;11.80;75.70;;;;;;5047532;28;20602;-79
2024/02/16 05:47:47;;;;;;;10.82;2.85;;;11.80;75.80;;;;;;5045313;28;20040;-79
2024/02/16 05:50:32;;;;;;;10.65;2.88;;;11.80;75.70;;;;;;5025215;28;20463;-79
2024/02/16 05:53:16;;;;;;;8.35;2.63;;;11.70;75.60;;;;;;5038889;28;20044;-79
2024/02/16 05:56:01;;;;;;;7.78;2.30;;;11.70;75.70;;;;;;5032386;28;20176;-79
2024/02/16 05:58:50;;;;;;;8.93;3.08;;;11.70;75.70;;;;;;5038378;28;20036;-79
2024/02/16 06:01:34;;;;;;;10.70;3.13;;;11.70;75.70;;;;;;5039367;28;20079;-78
2024/02/16 06:04:19;;;;;;;13.27;3.25;;;11.60;75.50;;;;;;5038047;28;20032;-78
2024/02/16 06:07:04;;;;;;;8.20;3.40;;;11.60;75.60;;;;;;5042293;28;20106;-78
2024/02/16 06:09:51;;;;;;;10.32;2.83;;;11.60;75.60;;;;;;5041522;28;20498;-78
2024/02/16 06:12:37;;;;;;;6.28;2.85;;;11.60;75.60;;;;;;5038750;28;20048;-80
2024/02/16 06:15:21;;;;;;;10.27;2.97;;;11.60;75.60;;;;;;5024977;28;20174;-79
2024/02/16 06:18:06;;;;;;;13.00;3.47;;;11.60;75.60;;;;;;5038506;28;20265;-79
2024/02/16 06:20:51;;;;;;;10.52;3.58;;;11.70;75.80;;;;;;5030117;28;20228;-78
2024/02/16 06:23:35;;;;;;;10.00;2.85;;;11.60;75.60;;;;;;5032464;28;20040;-78
2024/02/16 06:26:20;;;;;;;9.27;2.63;;;11.60;75.60;;;;;;5037838;28;20533;-81
2024/02/16 06:29:05;;;;;;;11.63;2.60;;;11.70;75.70;;;;;;5027439;28;20111;-78
2024/02/16 06:31:51;;;;;;;10.15;2.78;;;11.60;75.50;;;;;;5037457;28;20044;-77
2024/02/16 06:34:36;;;;;;;11.57;2.80;;;11.70;75.70;;;;;;5043888;28;20096;-78
2024/02/16 06:37:24;;;;;;;9.18;2.50;;;11.70;75.70;;;;;;5029559;28;20157;-77
2024/02/16 06:40:10;;;;;;;10.27;3.53;;;11.70;75.90;;;;;;5033019;28;20499;-76
2024/02/16 06:42:54;;;;;;;11.00;3.58;;;11.80;76.10;;;;;;5022272;28;20486;-78
2024/02/16 06:45:39;;;;;;;8.05;3.15;;;11.80;76.10;;;;;;5027066;28;20134;-76
2024/02/16 06:48:24;;;;;;;8.65;3.28;;;11.80;76.20;;;;;;5028594;28;20257;-77
2024/02/16 06:51:09;;;;;;;113.55;24.25;;;11.90;76.50;;;;;;5036097;28;20593;-79
2024/02/16 06:53:54;;;;;;;72.93;18.75;;;12.00;76.80;;;;;;5034575;28;20131;-79
2024/02/16 06:56:38;;;;;;;37.72;11.10;;;12.00;77.00;;;;;;5034420;28;20258;-78
2024/02/16 06:59:22;;;;;;;36.05;8.85;;;12.00;77.10;;;;;;5033532;28;20461;-78
2024/02/16 07:02:07;;;;;;;27.67;8.05;;;12.10;77.40;;;;;;5036824;28;20109;-76
2024/02/16 07:04:52;;;;;;;31.67;7.55;;;12.10;77.60;;;;;;5029299;28;20062;-78
2024/02/16 07:07:36;;;;;;;90.55;23.73;;;12.20;78.00;;;;;;5032800;28;20067;-77
2024/02/16 07:10:21;;;;;;;62.85;16.23;;;12.20;78.20;;;;;;5035183;28;20043;-77
2024/02/16 07:13:05;;;;;;;61.72;17.27;;;12.20;78.30;;;;;;5028259;28;20892;-77
2024/02/16 07:15:50;;;;;;;63.00;17.45;;;12.30;78.60;;;;;;5029005;28;20060;-75
2024/02/16 07:18:34;;;;;;;53.42;13.30;;;12.20;78.40;;;;;;5029658;28;20044;-75
2024/02/16 07:21:20;;;;;;;46.70;14.70;;;12.30;78.60;;;;;;5035621;28;20545;-75
2024/02/16 07:24:06;;;;;;;45.08;12.85;;;12.30;78.60;;;;;;5044736;28;20461;-75
2024/02/16 07:26:50;;;;;;;49.38;10.35;;;12.30;78.60;;;;;;5030559;28;20052;-75
2024/02/16 07:29:35;;;;;;;46.00;12.05;;;12.30;78.60;;;;;;5030720;28;20569;-76
2024/02/16 07:32:20;;;;;;;35.83;8.85;;;12.30;78.60;;;;;;5033976;28;20491;-75
2024/02/16 07:35:05;;;;;;;34.25;8.90;;;12.30;78.60;;;;;;5040644;28;20416;-74
2024/02/16 07:37:54;;;;;;;32.83;9.40;;;12.30;78.50;;;;;;5027330;28;20101;-75
2024/02/16 07:40:38;;;;;;;25.67;7.85;;;12.20;78.30;;;;;;5033501;28;20549;-74
2024/02/16 07:43:24;;;;;;;29.13;8.25;;;12.20;78.30;;;;;;5035667;28;20233;-73
2024/02/16 07:46:08;;;;;;;28.08;8.95;;;12.30;78.40;;;;;;5019214;28;20060;-74
2024/02/16 07:48:54;;;;;;;30.77;8.05;;;12.30;78.30;;;;;;5033798;28;20040;-73
2024/02/16 07:51:40;;;;;;;19.08;5.55;;;12.20;78.10;;;;;;5038696;28;20080;-74
2024/02/16 07:54:27;;;;;;;21.52;5.68;;;12.30;78.20;;;;;;5033934;28;20168;-74
2024/02/16 07:57:12;;;;;;;17.13;5.28;;;12.30;78.10;;;;;;5010636;28;20557;-73
2024/02/16 07:59:57;;;;;;;19.13;5.28;;;12.30;78.10;;;;;;5036941;28;20062;-73
2024/02/16 08:02:43;;;;;;;13.80;5.03;;;12.30;78.00;;;;;;5036992;28;20447;-76
2024/02/16 08:05:27;;;;;;;17.88;4.85;;;12.30;78.00;;;;;;5034975;28;20142;-74
2024/02/16 08:08:12;;;;;;;18.33;5.88;;;12.30;77.90;;;;;;5035269;28;20542;-74
2024/02/16 08:10:56;;;;;;;13.35;3.63;;;12.30;77.80;;;;;;5035587;28;20048;-74
2024/02/16 08:13:41;;;;;;;16.38;4.20;;;12.30;77.70;;;;;;5036173;28;20127;-74
2024/02/16 08:16:28;;;;;;;17.08;4.00;;;12.40;77.80;;;;;;5039149;28;20115;-74
2024/02/16 08:19:13;;;;;;;16.33;4.82;;;12.40;77.70;;;;;;5040030;28;20400;-74
2024/02/16 08:21:58;;;;;;;15.30;3.63;;;12.40;77.60;;;;;;5038593;28;20583;-74
2024/02/16 08:24:46;;;;;;;12.27;4.68;;;12.40;77.50;;;;;;5036757;28;20087;-75
2024/02/16 08:27:30;;;;;;;14.82;3.47;;;12.40;77.40;;;;;;5036691;28;20040;-73
2024/02/16 08:30:14;;;;;;;10.00;3.88;;;12.50;77.50;;;;;;5039999;28;20696;-74
2024/02/16 08:33:00;;;;;;;13.57;3.92;;;12.50;77.30;;;;;;5037320;28;20076;-74
2024/02/16 08:35:45;;;;;;;12.32;3.60;;;12.60;77.40;;;;;;5035417;28;20048;-74
2024/02/16 08:38:29;;;;;;;11.07;3.30;;;12.60;77.30;;;;;;5040766;28;20063;-74
2024/02/16 08:41:15;;;;;;;15.32;4.13;;;12.70;77.30;;;;;;5027531;28;20400;-74
2024/02/16 08:43:59;;;;;;;9.40;3.42;;;12.70;77.20;;;;;;5036027;28;20052;-75
2024/02/16 08:46:44;;;;;;;8.30;2.20;;;12.70;77.10;;;;;;5041008;28;20186;-75
2024/02/16 08:49:28;;;;;;;9.43;2.58;;;12.80;77.00;;;;;;5034750;28;20111;-75
2024/02/16 08:52:13;;;;;;;9.23;2.35;;;12.90;77.00;;;;;;5035515;28;20079;-74
2024/02/16 08:54:58;;;;;;;10.70;2.58;;;13.00;77.00;;;;;;5040118;28;20044;-74
2024/02/16 08:57:42;;;;;;;9.05;2.80;;;13.10;76.90;;;;;;5046731;28;20040;-74
2024/02/16 09:00:28;;;;;;;10.45;2.80;;;13.10;76.70;;;;;;5046103;28;20075;-77
2024/02/16 09:03:12;;;;;;;9.88;2.28;;;13.20;76.70;;;;;;5032746;28;20317;-76
2024/02/16 09:05:57;;;;;;;10.35;2.90;;;13.20;76.50;;;;;;5034298;28;20395;-76
2024/02/16 09:08:42;;;;;;;8.98;2.28;;;13.30;76.50;;;;;;5037053;28;20082;-76
2024/02/16 09:11:27;;;;;;;9.63;2.40;;;13.40;76.50;;;;;;5035070;28;20062;-76
2024/02/16 09:14:13;;;;;;;8.88;2.50;;;13.40;76.30;;;;;;5038891;28;20132;-77
2024/02/16 09:16:57;;;;;;;10.98;2.58;;;13.50;76.30;;;;;;5037481;28;20045;-77
2024/02/16 09:19:43;;;;;;;12.60;2.35;;;13.50;76.20;;;;;;5039996;28;20460;-76
2024/02/16 09:22:28;;;;;;;6.18;2.33;;;13.60;76.20;;;;;;5041857;28;20071;-76
2024/02/16 09:25:14;;;;;;;9.02;2.58;;;13.70;76.20;;;;;;5024033;28;20044;-77
2024/02/16 09:28:02;;;;;;;10.35;3.30;;;13.70;76.10;;;;;;5031030;28;20079;-77
2024/02/16 09:30:47;;;;;;;9.63;2.00;;;13.70;75.90;;;;;;5040777;28;20296;-77
2024/02/16 09:33:32;;;;;;;12.10;2.08;;;13.80;75.90;;;;;;5030105;28;20397;-77
2024/02/16 09:36:17;;;;;;;7.75;2.05;;;13.90;76.00;;;;;;5032143;28;20048;-77
2024/02/16 09:39:03;;;;;;;8.07;2.58;;;13.90;75.80;;;;;;5042282;28;20388;-77
2024/02/16 09:41:52;;;;;;;6.25;1.95;;;14.00;75.80;;;;;;5039932;28;20044;-77
2024/02/16 09:44:37;;;;;;;8.02;2.10;;;14.10;75.80;;;;;;5025110;28;20171;-76
2024/02/16 09:47:23;;;;;;;8.55;2.03;;;14.10;75.60;;;;;;5037627;28;20122;-79
2024/02/16 09:50:07;;;;;;;5.90;1.80;;;14.20;75.50;;;;;;5030853;28;20699;-77
2024/02/16 09:52:53;;;;;;;9.13;1.77;;;14.30;75.50;;;;;;5035238;28;20099;-77
2024/02/16 09:55:39;;;;;;;5.97;1.90;;;14.30;75.80;;;;;;5030493;28;20530;-76
2024/02/16 09:58:24;;;;;;;5.32;1.60;;;14.30;75.20;;;;;;5031533;28;20127;-77
2024/02/16 10:01:19;;;;;;;5.80;1.80;;;14.30;75.20;;;;;;5033662;28;20040;-76
2024/02/16 10:04:10;;;;;;;9.20;2.63;;;14.30;75.60;;;;;;5034764;28;20152;-77
2024/02/16 10:06:54;;;;;;;6.80;1.88;;;14.30;75.00;;;;;;5032748;28;20048;-76
2024/02/16 10:09:42;;;;;;;8.75;3.03;;;14.30;75.00;;;;;;5040326;28;20056;-76
2024/02/16 10:12:28;;;;;;;7.47;1.70;;;14.30;74.90;;;;;;5040205;28;20047;-76
2024/02/16 10:15:20;;;;;;;5.03;1.38;;;14.30;74.80;;;;;;5041793;28;20079;-76
2024/02/16 10:18:05;;;;;;;5.20;1.55;;;14.40;74.90;;;;;;5025726;28;20165;-75
2024/02/16 10:20:50;;;;;;;7.65;1.67;;;14.30;74.80;;;;;;5033312;28;20052;-74
2024/02/16 10:23:35;;;;;;;6.20;1.92;;;14.30;74.80;;;;;;5038680;28;20044;-75
2024/02/16 10:26:22;;;;;;;7.50;1.63;;;14.20;74.70;;;;;;5040190;28;20134;-75
2024/02/16 10:29:10;;;;;;;6.18;1.40;;;14.20;74.70;;;;;;5030405;28;20114;-75
2024/02/16 10:31:55;;;;;;;7.32;1.58;;;14.20;74.70;;;;;;5036289;28;20079;-75
2024/02/16 10:34:41;;;;;;;8.77;2.28;;;14.20;74.60;;;;;;5033865;28;20056;-75
2024/02/16 10:37:26;;;;;;;6.30;1.42;;;14.20;74.50;;;;;;5032109;28;20117;-75
2024/02/16 10:40:13;;;;;;;6.20;1.33;;;14.20;74.50;;;;;;5033010;28;20471;-75
2024/02/16 10:43:00;;;;;;;7.03;1.88;;;14.20;74.40;;;;;;5028454;28;20048;-75
2024/02/16 10:45:47;;;;;;;4.43;1.08;;;14.30;74.60;;;;;;5033668;28;20196;-77
2024/02/16 10:48:31;;;;;;;5.43;1.80;;;14.30;74.50;;;;;;5024315;28;20488;-76
2024/02/16 10:51:28;;;;;;;4.35;1.10;;;14.40;74.40;;;;;;5036998;28;20119;-75
2024/02/16 10:54:17;;;;;;;4.65;1.35;;;14.50;74.30;;;;;;5035110;28;20385;-76
2024/02/16 10:57:02;;;;;;;3.70;1.40;;;14.60;74.30;;;;;;5033434;28;20036;-75
2024/02/16 10:59:47;;;;;;;3.50;1.30;;;14.70;74.60;;;;;;5033046;28;20193;-76
2024/02/16 11:02:32;;;;;;;4.82;1.52;;;14.80;73.80;;;;;;5039696;28;20420;-76
2024/02/16 11:05:19;;;;;;;5.63;1.15;;;15.00;73.80;;;;;;5029726;28;20308;-75
2024/02/16 11:08:07;;;;;;;6.18;2.00;;;15.10;73.60;;;;;;5038148;28;20056;-76
2024/02/16 11:11:03;;;;;;;6.97;1.30;;;15.20;73.40;;;;;;5039846;28;20048;-75
2024/02/16 11:13:47;;;;;;;4.97;1.80;;;15.30;73.20;;;;;;5034854;28;20094;-75
2024/02/16 11:16:32;;;;;;;6.10;1.63;;;15.40;73.20;;;;;;5030444;28;20060;-76
2024/02/16 11:19:16;;;;;;;5.97;1.70;;;15.40;73.10;;;;;;5011556;28;20040;-77
2024/02/16 11:22:11;;;;;;;10.02;1.95;;;15.30;72.90;;;;;;5035799;28;20139;-76
2024/02/16 11:24:58;;;;;;;6.03;1.30;;;15.30;73.00;;;;;;5037232;28;20060;-76
2024/02/16 11:27:43;;;;;;;6.95;1.63;;;15.30;73.00;;;;;;5035109;28;20043;-75
2024/02/16 11:30:28;;;;;;;8.98;1.50;;;15.30;73.00;;;;;;5034287;28;20044;-76
2024/02/16 11:33:12;;;;;;;5.35;1.83;;;15.40;73.10;;;;;;5037132;28;20117;-76
2024/02/16 11:35:59;;;;;;;4.70;1.40;;;15.50;73.00;;;;;;5033565;28;20412;-75
2024/02/16 11:38:43;;;;;;;5.28;1.20;;;15.60;72.80;;;;;;5035203;28;20059;-76
2024/02/16 11:41:28;;;;;;;3.15;1.02;;;15.70;72.70;;;;;;5034706;28;20039;-76
2024/02/16 11:44:16;;;;;;;6.32;2.00;;;15.90;72.60;;;;;;5031485;28;20078;-75
2024/02/16 11:47:01;;;;;;;5.55;1.70;;;16.00;72.40;;;;;;5034150;28;20609;-76
2024/02/16 11:49:46;;;;;;;5.05;1.23;;;16.20;72.30;;;;;;5029025;28;20400;-76
2024/02/16 11:52:33;;;;;;;5.18;1.42;;;16.30;72.10;;;;;;5034767;28;20052;-76
2024/02/16 11:55:18;;;;;;;6.88;1.50;;;16.40;71.90;;;;;;5020220;28;20092;-76
2024/02/16 11:58:02;;;;;;;5.15;1.33;;;16.50;71.80;;;;;;5036486;28;20362;-76
2024/02/16 12:00:48;;;;;;;5.85;1.33;;;16.60;71.70;;;;;;5035311;28;20048;-76
2024/02/16 12:03:32;;;;;;;6.47;1.48;;;16.70;71.70;;;;;;5037955;28;20072;-77
2024/02/16 12:06:24;;;;;;;3.22;0.82;;;16.70;71.50;;;;;;5038328;28;20075;-77
2024/02/16 12:09:16;;;;;;;6.95;1.20;;;16.70;71.50;;;;;;5034552;28;20040;-77
2024/02/16 12:12:01;;;;;;;5.65;1.83;;;16.70;71.40;;;;;;5039241;28;20605;-76
2024/02/16 12:14:46;;;;;;;4.88;1.15;;;16.70;71.40;;;;;;5034398;28;20070;-76
2024/02/16 12:17:30;;;;;;;4.95;1.30;;;16.70;71.30;;;;;;5038460;28;20934;-76
2024/02/16 12:20:17;;;;;;;3.47;0.85;;;16.80;71.40;;;;;;5042977;28;20053;-76
2024/02/16 12:23:12;;;;;;;1.65;0.80;;;16.70;71.00;;;;;;5040767;28;20052;-76
2024/02/16 12:25:57;;;;;;;6.05;1.20;;;16.80;71.00;;;;;;5039143;28;20076;-76
2024/02/16 12:28:42;;;;;;;2.53;1.02;;;16.80;70.90;;;;;;5046137;28;20116;-75
2024/02/16 12:31:27;;;;;;;5.85;1.23;;;16.90;70.90;;;;;;5039579;28;20128;-76
2024/02/16 12:34:12;;;;;;;3.92;1.10;;;16.90;70.70;;;;;;5033367;28;20076;-76
2024/02/16 12:36:56;;;;;;;5.53;1.67;;;17.00;70.70;;;;;;5015209;28;20129;-76
2024/02/16 12:39:41;;;;;;;4.40;0.80;;;17.10;70.60;;;;;;5040546;28;20039;-76
2024/02/16 12:42:26;;;;;;;4.38;1.27;;;17.20;70.50;;;;;;5037129;28;20052;-77
2024/02/16 12:45:11;;;;;;;4.75;1.42;;;17.30;70.40;;;;;;5042511;28;20040;-76
2024/02/16 12:47:55;;;;;;;5.28;1.65;;;17.30;70.10;;;;;;5034985;28;20130;-76
2024/02/16 12:50:41;;;;;;;5.22;1.13;;;17.40;70.10;;;;;;5028343;28;20624;-76
2024/02/16 12:53:29;;;;;;;4.75;1.85;;;17.40;69.90;;;;;;5035079;28;20047;-77
2024/02/16 12:56:14;;;;;;;4.90;1.10;;;17.50;70.00;;;;;;5028243;28;20135;-76
2024/02/16 12:59:00;;;;;;;4.35;1.80;;;17.50;69.90;;;;;;5035893;28;20693;-76
2024/02/16 13:01:45;;;;;;;4.15;1.02;;;17.60;69.90;;;;;;5038983;28;20136;-76
2024/02/16 13:04:32;;;;;;;7.05;1.27;;;17.60;69.70;;;;;;5041418;28;20044;-76
2024/02/16 13:07:16;;;;;;;6.03;1.60;;;17.70;69.70;;;;;;5035013;28;20072;-76
2024/02/16 13:10:02;;;;;;;4.88;1.35;;;17.70;69.50;;;;;;5034752;28;20423;-76
2024/02/16 13:12:46;;;;;;;5.97;1.40;;;17.70;69.40;;;;;;5037131;28;20094;-76
2024/02/16 13:15:32;;;;;;;5.22;1.88;;;17.80;69.40;;;;;;5037779;28;20151;-76
2024/02/16 13:18:17;;;;;;;5.07;0.95;;;17.80;69.80;;;;;;5036231;28;20297;-76
2024/02/16 13:21:02;;;;;;;7.00;1.40;;;17.80;69.20;;;;;;5038536;28;20453;-76
2024/02/16 13:23:47;;;;;;;4.53;1.15;;;17.80;69.10;;;;;;5036633;28;20103;-77
2024/02/16 13:26:32;;;;;;;5.85;1.30;;;17.90;69.10;;;;;;5027762;28;20079;-77
2024/02/16 13:29:16;;;;;;;10.18;2.20;;;17.90;68.90;;;;;;5027330;28;20533;-76
2024/02/16 13:32:01;;;;;;;5.63;1.67;;;17.90;68.70;;;;;;5039745;28;20086;-76
2024/02/16 13:34:45;;;;;;;3.67;1.05;;;17.90;68.60;;;;;;5042808;28;20629;-77
2024/02/16 13:37:30;;;;;;;6.50;2.13;;;17.90;68.50;;;;;;5029613;28;20091;-77
2024/02/16 13:40:17;;;;;;;5.78;1.52;;;17.90;68.60;;;;;;5024282;28;20044;-77
2024/02/16 13:43:03;;;;;;;9.32;2.00;;;17.80;68.40;;;;;;5047629;28;20478;-77
2024/02/16 13:45:52;;;;;;;5.05;1.67;;;17.80;68.40;;;;;;5031654;28;20472;-77
2024/02/16 13:48:39;;;;;;;10.80;2.92;;;17.80;68.40;;;;;;5046847;28;20898;-76
2024/02/16 13:51:24;;;;;;;5.68;1.48;;;17.80;68.30;;;;;;5046793;28;20462;-76
2024/02/16 13:54:08;;;;;;;6.15;1.35;;;17.80;68.30;;;;;;5038013;28;20048;-77
2024/02/16 13:56:53;;;;;;;4.88;1.60;;;17.80;68.10;;;;;;5022329;28;20047;-76
2024/02/16 13:59:37;;;;;;;7.32;1.70;;;17.80;68.00;;;;;;5040606;28;20040;-77
2024/02/16 14:02:22;;;;;;;4.75;1.73;;;17.80;67.90;;;;;;5033064;28;20161;-76
2024/02/16 14:05:06;;;;;;;8.35;1.83;;;17.80;67.90;;;;;;5045285;28;20035;-76
2024/02/16 14:07:51;;;;;;;5.53;1.50;;;17.70;67.80;;;;;;5050702;28;20051;-76
2024/02/16 14:10:35;;;;;;;2.88;1.30;;;17.70;67.80;;;;;;5035768;28;20040;-77
2024/02/16 14:13:21;;;;;;;7.60;1.95;;;17.60;67.70;;;;;;5047464;28;20535;-77
2024/02/16 14:16:07;;;;;;;6.57;2.63;;;17.50;67.60;;;;;;5035648;28;20044;-77